sensor_id;sensor_type;location;lat;lon;timestamp;P1;durP1;ratioP1;P2;durP2;ratioP2
69594;SDS011;56800;52.142;5.364;2023-01-29T00:02:05;21.30;;;12.75;;
69594;SDS011;56800;52.142;5.364;2023-01-29T00:04:32;26.02;;;14.30;;
69594;SDS011;56800;52.142;5.364;2023-01-29T00:06:59;23.67;;;13.95;;
69594;SDS011;56800;52.142;5.364;2023-01-29T00:09:26;23.15;;;13.77;;
69594;SDS011;56800;52.142;5.364;2023-01-29T00:11:53;22.53;;;13.23;;
69594;SDS011;56800;52.142;5.364;2023-01-29T00:14:20;23.90;;;13.13;;
69594;SDS011;56800;52.142;5.364;2023-01-29T00:16:46;25.33;;;13.95;;
69594;SDS011;56800;52.142;5.364;2023-01-29T00:19:13;21.45;;;13.00;;
69594;SDS011;56800;52.142;5.364;2023-01-29T00:21:40;26.15;;;13.68;;
69594;SDS011;56800;52.142;5.364;2023-01-29T00:24:06;25.07;;;14.30;;
69594;SDS011;56800;52.142;5.364;2023-01-29T00:26:33;22.33;;;13.45;;
69594;SDS011;56800;52.142;5.364;2023-01-29T00:29:00;22.83;;;13.75;;
69594;SDS011;56800;52.142;5.364;2023-01-29T00:31:27;23.50;;;13.30;;
69594;SDS011;56800;52.142;5.364;2023-01-29T00:33:54;20.63;;;13.30;;
69594;SDS011;56800;52.142;5.364;2023-01-29T00:36:21;21.17;;;12.97;;
69594;SDS011;56800;52.142;5.364;2023-01-29T00:38:53;24.65;;;14.10;;
69594;SDS011;56800;52.142;5.364;2023-01-29T00:41:27;22.52;;;13.50;;
69594;SDS011;56800;52.142;5.364;2023-01-29T00:44:14;23.23;;;13.63;;
69594;SDS011;56800;52.142;5.364;2023-01-29T00:46:59;24.10;;;12.75;;
69594;SDS011;56800;52.142;5.364;2023-01-29T00:49:26;20.47;;;12.50;;
69594;SDS011;56800;52.142;5.364;2023-01-29T00:51:53;22.00;;;13.57;;
69594;SDS011;56800;52.142;5.364;2023-01-29T00:54:38;21.95;;;13.98;;
69594;SDS011;56800;52.142;5.364;2023-01-29T00:57:05;24.45;;;13.55;;
69594;SDS011;56800;52.142;5.364;2023-01-29T00:59:32;25.35;;;14.52;;
69594;SDS011;56800;52.142;5.364;2023-01-29T01:01:58;23.77;;;13.27;;
69594;SDS011;56800;52.142;5.364;2023-01-29T01:04:43;23.48;;;13.57;;
69594;SDS011;56800;52.142;5.364;2023-01-29T01:07:10;21.60;;;12.98;;
69594;SDS011;56800;52.142;5.364;2023-01-29T01:09:39;22.63;;;13.55;;
69594;SDS011;56800;52.142;5.364;2023-01-29T01:12:25;21.30;;;12.90;;
69594;SDS011;56800;52.142;5.364;2023-01-29T01:14:52;22.23;;;12.97;;
69594;SDS011;56800;52.142;5.364;2023-01-29T01:17:19;22.55;;;12.35;;
69594;SDS011;56800;52.142;5.364;2023-01-29T01:19:45;22.23;;;12.68;;
69594;SDS011;56800;52.142;5.364;2023-01-29T01:22:12;19.95;;;12.02;;
69594;SDS011;56800;52.142;5.364;2023-01-29T01:24:39;23.10;;;12.80;;
69594;SDS011;56800;52.142;5.364;2023-01-29T01:27:05;21.70;;;12.97;;
69594;SDS011;56800;52.142;5.364;2023-01-29T01:29:32;23.20;;;12.70;;
69594;SDS011;56800;52.142;5.364;2023-01-29T01:31:59;21.10;;;12.80;;
69594;SDS011;56800;52.142;5.364;2023-01-29T01:34:26;20.67;;;11.73;;
69594;SDS011;56800;52.142;5.364;2023-01-29T01:36:53;24.63;;;12.85;;
69594;SDS011;56800;52.142;5.364;2023-01-29T01:39:21;20.83;;;13.07;;
69594;SDS011;56800;52.142;5.364;2023-01-29T01:41:49;25.05;;;12.95;;
69594;SDS011;56800;52.142;5.364;2023-01-29T01:45:05;22.67;;;12.57;;
69594;SDS011;56800;52.142;5.364;2023-01-29T01:50:02;21.52;;;12.75;;
69594;SDS011;56800;52.142;5.364;2023-01-29T01:52:40;23.07;;;13.37;;
69594;SDS011;56800;52.142;5.364;2023-01-29T01:55:11;23.75;;;12.38;;
69594;SDS011;56800;52.142;5.364;2023-01-29T01:57:40;21.80;;;12.65;;
69594;SDS011;56800;52.142;5.364;2023-01-29T02:00:11;21.38;;;12.60;;
69594;SDS011;56800;52.142;5.364;2023-01-29T02:02:42;19.75;;;12.18;;
69594;SDS011;56800;52.142;5.364;2023-01-29T02:05:30;25.17;;;13.40;;
69594;SDS011;56800;52.142;5.364;2023-01-29T02:08:18;22.80;;;13.05;;
69594;SDS011;56800;52.142;5.364;2023-01-29T02:11:14;21.20;;;12.68;;
69594;SDS011;56800;52.142;5.364;2023-01-29T02:13:42;23.45;;;13.20;;
69594;SDS011;56800;52.142;5.364;2023-01-29T02:16:09;22.85;;;12.82;;
69594;SDS011;56800;52.142;5.364;2023-01-29T02:18:36;23.07;;;13.27;;
69594;SDS011;56800;52.142;5.364;2023-01-29T02:29:22;24.50;;;13.77;;
69594;SDS011;56800;52.142;5.364;2023-01-29T02:32:16;20.67;;;12.30;;
69594;SDS011;56800;52.142;5.364;2023-01-29T02:42:53;23.98;;;13.43;;
69594;SDS011;56800;52.142;5.364;2023-01-29T02:48:18;25.70;;;14.13;;
69594;SDS011;56800;52.142;5.364;2023-01-29T02:50:48;23.35;;;12.98;;
69594;SDS011;56800;52.142;5.364;2023-01-29T02:55:59;23.08;;;13.65;;
69594;SDS011;56800;52.142;5.364;2023-01-29T02:58:41;24.43;;;13.80;;
69594;SDS011;56800;52.142;5.364;2023-01-29T03:01:22;26.27;;;13.10;;
69594;SDS011;56800;52.142;5.364;2023-01-29T03:04:15;22.42;;;12.80;;
69594;SDS011;56800;52.142;5.364;2023-01-29T03:06:57;23.42;;;13.15;;
69594;SDS011;56800;52.142;5.364;2023-01-29T03:09:41;21.38;;;13.20;;
69594;SDS011;56800;52.142;5.364;2023-01-29T03:12:18;24.33;;;13.50;;
69594;SDS011;56800;52.142;5.364;2023-01-29T03:15:02;26.02;;;13.30;;
69594;SDS011;56800;52.142;5.364;2023-01-29T03:17:42;24.52;;;14.65;;
69594;SDS011;56800;52.142;5.364;2023-01-29T03:20:23;24.00;;;13.05;;
69594;SDS011;56800;52.142;5.364;2023-01-29T03:23:01;27.50;;;14.38;;
69594;SDS011;56800;52.142;5.364;2023-01-29T03:25:31;24.53;;;13.40;;
69594;SDS011;56800;52.142;5.364;2023-01-29T03:28:18;25.13;;;13.35;;
69594;SDS011;56800;52.142;5.364;2023-01-29T03:31:06;23.50;;;14.13;;
69594;SDS011;56800;52.142;5.364;2023-01-29T03:33:59;26.92;;;14.00;;
69594;SDS011;56800;52.142;5.364;2023-01-29T03:36:31;24.30;;;14.48;;
69594;SDS011;56800;52.142;5.364;2023-01-29T03:39:10;24.47;;;14.97;;
69594;SDS011;56800;52.142;5.364;2023-01-29T03:41:41;26.77;;;14.35;;
69594;SDS011;56800;52.142;5.364;2023-01-29T03:44:22;25.80;;;15.27;;
69594;SDS011;56800;52.142;5.364;2023-01-29T03:47:39;25.73;;;15.93;;
69594;SDS011;56800;52.142;5.364;2023-01-29T03:50:13;29.63;;;14.55;;
69594;SDS011;56800;52.142;5.364;2023-01-29T03:56:42;24.67;;;15.27;;
69594;SDS011;56800;52.142;5.364;2023-01-29T03:58:47;31.58;;;16.35;;
69594;SDS011;56800;52.142;5.364;2023-01-29T04:01:41;29.85;;;15.98;;
69594;SDS011;56800;52.142;5.364;2023-01-29T04:04:14;28.45;;;15.95;;
69594;SDS011;56800;52.142;5.364;2023-01-29T04:06:45;29.13;;;16.37;;
69594;SDS011;56800;52.142;5.364;2023-01-29T04:09:18;25.60;;;15.10;;
69594;SDS011;56800;52.142;5.364;2023-01-29T04:11:50;30.90;;;17.40;;
69594;SDS011;56800;52.142;5.364;2023-01-29T04:14:36;29.58;;;15.63;;
69594;SDS011;56800;52.142;5.364;2023-01-29T04:17:08;28.95;;;16.50;;
69594;SDS011;56800;52.142;5.364;2023-01-29T04:19:41;28.10;;;16.17;;
69594;SDS011;56800;52.142;5.364;2023-01-29T04:22:11;27.42;;;15.95;;
69594;SDS011;56800;52.142;5.364;2023-01-29T04:24:42;30.40;;;16.70;;
69594;SDS011;56800;52.142;5.364;2023-01-29T04:32:41;30.13;;;16.67;;
69594;SDS011;56800;52.142;5.364;2023-01-29T04:40:50;27.05;;;15.23;;
69594;SDS011;56800;52.142;5.364;2023-01-29T04:43:31;26.42;;;15.95;;
69594;SDS011;56800;52.142;5.364;2023-01-29T04:46:19;27.13;;;15.20;;
69594;SDS011;56800;52.142;5.364;2023-01-29T04:54:17;28.13;;;16.02;;
69594;SDS011;56800;52.142;5.364;2023-01-29T04:59:22;29.57;;;16.43;;
69594;SDS011;56800;52.142;5.364;2023-01-29T05:02:09;27.30;;;16.40;;
69594;SDS011;56800;52.142;5.364;2023-01-29T05:04:38;26.58;;;16.08;;
69594;SDS011;56800;52.142;5.364;2023-01-29T05:07:07;28.80;;;16.92;;
69594;SDS011;56800;52.142;5.364;2023-01-29T05:09:37;31.52;;;16.33;;
69594;SDS011;56800;52.142;5.364;2023-01-29T05:12:06;29.27;;;17.57;;
69594;SDS011;56800;52.142;5.364;2023-01-29T05:14:35;28.23;;;16.38;;
69594;SDS011;56800;52.142;5.364;2023-01-29T05:17:07;29.08;;;16.77;;
69594;SDS011;56800;52.142;5.364;2023-01-29T05:19:38;29.85;;;16.75;;
69594;SDS011;56800;52.142;5.364;2023-01-29T05:22:05;28.30;;;16.48;;
69594;SDS011;56800;52.142;5.364;2023-01-29T05:24:36;29.17;;;16.50;;
69594;SDS011;56800;52.142;5.364;2023-01-29T05:27:03;31.60;;;17.15;;
69594;SDS011;56800;52.142;5.364;2023-01-29T05:29:48;26.77;;;15.20;;
69594;SDS011;56800;52.142;5.364;2023-01-29T05:32:14;29.63;;;17.52;;
69594;SDS011;56800;52.142;5.364;2023-01-29T05:34:41;32.35;;;17.33;;
69594;SDS011;56800;52.142;5.364;2023-01-29T05:37:08;28.40;;;16.40;;
69594;SDS011;56800;52.142;5.364;2023-01-29T05:39:35;30.95;;;17.27;;
69594;SDS011;56800;52.142;5.364;2023-01-29T05:42:02;29.17;;;16.75;;
69594;SDS011;56800;52.142;5.364;2023-01-29T05:44:29;27.77;;;17.63;;
69594;SDS011;56800;52.142;5.364;2023-01-29T05:46:55;28.50;;;17.50;;
69594;SDS011;56800;52.142;5.364;2023-01-29T05:49:22;31.97;;;19.00;;
69594;SDS011;56800;52.142;5.364;2023-01-29T05:51:49;30.60;;;17.73;;
69594;SDS011;56800;52.142;5.364;2023-01-29T05:54:15;30.45;;;17.83;;
69594;SDS011;56800;52.142;5.364;2023-01-29T05:56:42;29.90;;;17.42;;
69594;SDS011;56800;52.142;5.364;2023-01-29T05:59:09;33.17;;;17.83;;
69594;SDS011;56800;52.142;5.364;2023-01-29T06:01:35;29.77;;;16.97;;
69594;SDS011;56800;52.142;5.364;2023-01-29T06:04:02;29.85;;;16.88;;
69594;SDS011;56800;52.142;5.364;2023-01-29T06:06:29;28.48;;;17.17;;
69594;SDS011;56800;52.142;5.364;2023-01-29T06:08:55;31.02;;;16.88;;
69594;SDS011;56800;52.142;5.364;2023-01-29T06:11:22;27.85;;;16.88;;
69594;SDS011;56800;52.142;5.364;2023-01-29T06:13:49;34.13;;;17.77;;
69594;SDS011;56800;52.142;5.364;2023-01-29T06:16:15;29.58;;;16.80;;
69594;SDS011;56800;52.142;5.364;2023-01-29T06:18:42;29.33;;;17.23;;
69594;SDS011;56800;52.142;5.364;2023-01-29T06:21:10;28.90;;;16.83;;
69594;SDS011;56800;52.142;5.364;2023-01-29T06:23:38;32.58;;;16.80;;
69594;SDS011;56800;52.142;5.364;2023-01-29T06:26:07;27.67;;;16.70;;
69594;SDS011;56800;52.142;5.364;2023-01-29T06:28:36;29.50;;;16.83;;
69594;SDS011;56800;52.142;5.364;2023-01-29T06:31:04;29.55;;;16.40;;
69594;SDS011;56800;52.142;5.364;2023-01-29T06:33:52;28.20;;;16.60;;
69594;SDS011;56800;52.142;5.364;2023-01-29T06:36:18;26.35;;;15.70;;
69594;SDS011;56800;52.142;5.364;2023-01-29T06:38:45;30.07;;;15.67;;
69594;SDS011;56800;52.142;5.364;2023-01-29T06:41:12;28.90;;;15.50;;
69594;SDS011;56800;52.142;5.364;2023-01-29T06:43:43;29.58;;;16.58;;
69594;SDS011;56800;52.142;5.364;2023-01-29T06:46:10;27.20;;;15.20;;
69594;SDS011;56800;52.142;5.364;2023-01-29T06:48:37;28.13;;;16.50;;
69594;SDS011;56800;52.142;5.364;2023-01-29T06:51:04;26.67;;;15.23;;
69594;SDS011;56800;52.142;5.364;2023-01-29T06:53:33;28.95;;;15.27;;
69594;SDS011;56800;52.142;5.364;2023-01-29T06:56:01;26.85;;;15.75;;
69594;SDS011;56800;52.142;5.364;2023-01-29T06:58:28;29.38;;;15.45;;
69594;SDS011;56800;52.142;5.364;2023-01-29T07:01:02;26.23;;;16.38;;
69594;SDS011;56800;52.142;5.364;2023-01-29T07:03:30;25.43;;;14.50;;
69594;SDS011;56800;52.142;5.364;2023-01-29T07:05:57;25.45;;;13.85;;
69594;SDS011;56800;52.142;5.364;2023-01-29T07:08:24;27.45;;;16.55;;
69594;SDS011;56800;52.142;5.364;2023-01-29T07:10:51;23.67;;;15.32;;
69594;SDS011;56800;52.142;5.364;2023-01-29T07:13:18;26.45;;;15.15;;
69594;SDS011;56800;52.142;5.364;2023-01-29T07:15:44;25.63;;;14.97;;
69594;SDS011;56800;52.142;5.364;2023-01-29T07:18:11;23.88;;;15.30;;
69594;SDS011;56800;52.142;5.364;2023-01-29T07:20:38;27.85;;;15.93;;
69594;SDS011;56800;52.142;5.364;2023-01-29T07:23:06;26.30;;;14.90;;
69594;SDS011;56800;52.142;5.364;2023-01-29T07:25:35;24.15;;;15.70;;
69594;SDS011;56800;52.142;5.364;2023-01-29T07:28:02;24.53;;;14.93;;
69594;SDS011;56800;52.142;5.364;2023-01-29T07:30:29;22.65;;;14.70;;
69594;SDS011;56800;52.142;5.364;2023-01-29T07:33:00;25.13;;;15.30;;
69594;SDS011;56800;52.142;5.364;2023-01-29T07:35:31;24.95;;;16.05;;
69594;SDS011;56800;52.142;5.364;2023-01-29T07:38:00;24.35;;;14.98;;
69594;SDS011;56800;52.142;5.364;2023-01-29T07:40:27;25.10;;;14.47;;
69594;SDS011;56800;52.142;5.364;2023-01-29T07:42:57;24.67;;;15.02;;
69594;SDS011;56800;52.142;5.364;2023-01-29T07:45:25;26.70;;;15.07;;
69594;SDS011;56800;52.142;5.364;2023-01-29T07:47:52;23.20;;;13.98;;
69594;SDS011;56800;52.142;5.364;2023-01-29T07:50:20;27.77;;;14.80;;
69594;SDS011;56800;52.142;5.364;2023-01-29T07:52:53;23.63;;;15.20;;
69594;SDS011;56800;52.142;5.364;2023-01-29T07:55:19;25.80;;;15.95;;
69594;SDS011;56800;52.142;5.364;2023-01-29T07:57:46;23.38;;;14.30;;
69594;SDS011;56800;52.142;5.364;2023-01-29T08:00:13;24.60;;;14.50;;
69594;SDS011;56800;52.142;5.364;2023-01-29T08:02:40;28.13;;;14.52;;
69594;SDS011;56800;52.142;5.364;2023-01-29T08:05:07;23.40;;;14.00;;
69594;SDS011;56800;52.142;5.364;2023-01-29T08:07:34;27.58;;;13.95;;
69594;SDS011;56800;52.142;5.364;2023-01-29T08:10:00;25.48;;;14.63;;
69594;SDS011;56800;52.142;5.364;2023-01-29T08:12:27;23.98;;;14.98;;
69594;SDS011;56800;52.142;5.364;2023-01-29T08:14:54;23.52;;;14.13;;
69594;SDS011;56800;52.142;5.364;2023-01-29T08:17:20;24.00;;;12.50;;
69594;SDS011;56800;52.142;5.364;2023-01-29T08:19:47;21.67;;;13.43;;
69594;SDS011;56800;52.142;5.364;2023-01-29T08:22:14;21.63;;;13.45;;
69594;SDS011;56800;52.142;5.364;2023-01-29T08:24:41;27.33;;;13.90;;
69594;SDS011;56800;52.142;5.364;2023-01-29T08:27:25;23.10;;;12.98;;
69594;SDS011;56800;52.142;5.364;2023-01-29T08:29:51;22.97;;;13.37;;
69594;SDS011;56800;52.142;5.364;2023-01-29T08:32:18;24.17;;;14.05;;
69594;SDS011;56800;52.142;5.364;2023-01-29T08:34:44;23.45;;;13.32;;
69594;SDS011;56800;52.142;5.364;2023-01-29T08:37:11;25.60;;;13.63;;
69594;SDS011;56800;52.142;5.364;2023-01-29T08:39:38;22.40;;;12.57;;
69594;SDS011;56800;52.142;5.364;2023-01-29T08:42:04;22.83;;;12.50;;
69594;SDS011;56800;52.142;5.364;2023-01-29T08:44:31;20.60;;;12.60;;
69594;SDS011;56800;52.142;5.364;2023-01-29T08:46:57;21.00;;;13.35;;
69594;SDS011;56800;52.142;5.364;2023-01-29T08:49:24;21.40;;;14.13;;
69594;SDS011;56800;52.142;5.364;2023-01-29T08:51:51;21.95;;;13.35;;
69594;SDS011;56800;52.142;5.364;2023-01-29T08:54:19;23.97;;;13.70;;
69594;SDS011;56800;52.142;5.364;2023-01-29T08:56:46;25.08;;;13.65;;
69594;SDS011;56800;52.142;5.364;2023-01-29T08:59:13;21.67;;;13.10;;
69594;SDS011;56800;52.142;5.364;2023-01-29T09:01:39;19.90;;;12.43;;
69594;SDS011;56800;52.142;5.364;2023-01-29T09:04:06;20.80;;;13.23;;
69594;SDS011;56800;52.142;5.364;2023-01-29T09:06:33;22.47;;;14.03;;
69594;SDS011;56800;52.142;5.364;2023-01-29T09:09:00;21.77;;;13.02;;
69594;SDS011;56800;52.142;5.364;2023-01-29T09:11:26;26.23;;;14.32;;
69594;SDS011;56800;52.142;5.364;2023-01-29T09:13:53;21.45;;;13.32;;
69594;SDS011;56800;52.142;5.364;2023-01-29T09:16:20;23.52;;;13.50;;
69594;SDS011;56800;52.142;5.364;2023-01-29T09:18:46;21.60;;;11.50;;
69594;SDS011;56800;52.142;5.364;2023-01-29T09:21:13;22.95;;;13.57;;
69594;SDS011;56800;52.142;5.364;2023-01-29T09:23:39;20.08;;;13.13;;
69594;SDS011;56800;52.142;5.364;2023-01-29T09:26:06;21.98;;;12.77;;
69594;SDS011;56800;52.142;5.364;2023-01-29T09:28:34;25.83;;;13.30;;
69594;SDS011;56800;52.142;5.364;2023-01-29T09:31:00;21.57;;;13.20;;
69594;SDS011;56800;52.142;5.364;2023-01-29T09:33:28;24.52;;;13.77;;
69594;SDS011;56800;52.142;5.364;2023-01-29T09:35:56;22.73;;;13.10;;
69594;SDS011;56800;52.142;5.364;2023-01-29T09:38:22;20.50;;;12.00;;
69594;SDS011;56800;52.142;5.364;2023-01-29T09:41:01;24.27;;;13.70;;
69594;SDS011;56800;52.142;5.364;2023-01-29T09:43:46;22.80;;;13.17;;
69594;SDS011;56800;52.142;5.364;2023-01-29T09:46:26;20.67;;;12.88;;
69594;SDS011;56800;52.142;5.364;2023-01-29T09:49:07;23.83;;;13.00;;
69594;SDS011;56800;52.142;5.364;2023-01-29T09:51:40;21.65;;;12.95;;
69594;SDS011;56800;52.142;5.364;2023-01-29T09:54:22;24.92;;;13.85;;
69594;SDS011;56800;52.142;5.364;2023-01-29T09:56:54;25.60;;;14.23;;
69594;SDS011;56800;52.142;5.364;2023-01-29T09:59:23;20.65;;;13.15;;
69594;SDS011;56800;52.142;5.364;2023-01-29T10:02:37;23.27;;;14.00;;
69594;SDS011;56800;52.142;5.364;2023-01-29T10:08:03;26.73;;;14.18;;
69594;SDS011;56800;52.142;5.364;2023-01-29T10:13:47;23.98;;;14.00;;
69594;SDS011;56800;52.142;5.364;2023-01-29T10:25:03;25.23;;;13.13;;
69594;SDS011;56800;52.142;5.364;2023-01-29T10:27:35;26.40;;;12.65;;
69594;SDS011;56800;52.142;5.364;2023-01-29T10:30:06;22.75;;;13.93;;
69594;SDS011;56800;52.142;5.364;2023-01-29T10:32:54;24.25;;;14.35;;
69594;SDS011;56800;52.142;5.364;2023-01-29T10:35:28;23.42;;;13.52;;
69594;SDS011;56800;52.142;5.364;2023-01-29T10:38:07;25.73;;;13.57;;
69594;SDS011;56800;52.142;5.364;2023-01-29T10:40:45;25.90;;;15.65;;
69594;SDS011;56800;52.142;5.364;2023-01-29T10:49:12;24.52;;;14.32;;
69594;SDS011;56800;52.142;5.364;2023-01-29T10:52:09;23.93;;;14.47;;
69594;SDS011;56800;52.142;5.364;2023-01-29T11:00:39;15.05;;;8.48;;
69594;SDS011;56800;52.142;5.364;2023-01-29T11:03:23;28.38;;;15.60;;
69594;SDS011;56800;52.142;5.364;2023-01-29T11:08:46;23.73;;;14.85;;
69594;SDS011;56800;52.142;5.364;2023-01-29T11:11:15;28.00;;;15.20;;
69594;SDS011;56800;52.142;5.364;2023-01-29T11:13:45;27.02;;;15.55;;
69594;SDS011;56800;52.142;5.364;2023-01-29T11:16:12;26.05;;;14.80;;
69594;SDS011;56800;52.142;5.364;2023-01-29T11:18:49;25.07;;;16.70;;
69594;SDS011;56800;52.142;5.364;2023-01-29T11:21:18;25.45;;;16.23;;
69594;SDS011;56800;52.142;5.364;2023-01-29T11:23:45;26.45;;;15.93;;
69594;SDS011;56800;52.142;5.364;2023-01-29T11:26:12;25.73;;;15.77;;
69594;SDS011;56800;52.142;5.364;2023-01-29T11:28:44;26.95;;;15.68;;
69594;SDS011;56800;52.142;5.364;2023-01-29T11:31:28;29.80;;;17.40;;
69594;SDS011;56800;52.142;5.364;2023-01-29T11:34:03;27.48;;;15.30;;
69594;SDS011;56800;52.142;5.364;2023-01-29T11:36:38;27.83;;;16.77;;
69594;SDS011;56800;52.142;5.364;2023-01-29T11:41:55;27.08;;;17.10;;
69594;SDS011;56800;52.142;5.364;2023-01-29T11:44:40;26.63;;;17.37;;
69594;SDS011;56800;52.142;5.364;2023-01-29T11:47:18;18.40;;;11.05;;
69594;SDS011;56800;52.142;5.364;2023-01-29T11:49:49;32.10;;;18.15;;
69594;SDS011;56800;52.142;5.364;2023-01-29T11:52:20;31.00;;;18.17;;
69594;SDS011;56800;52.142;5.364;2023-01-29T11:59:56;31.02;;;18.17;;
69594;SDS011;56800;52.142;5.364;2023-01-29T12:02:31;33.88;;;18.67;;
69594;SDS011;56800;52.142;5.364;2023-01-29T12:05:05;30.73;;;18.15;;
69594;SDS011;56800;52.142;5.364;2023-01-29T12:07:46;30.55;;;17.40;;
69594;SDS011;56800;52.142;5.364;2023-01-29T12:10:34;33.70;;;18.63;;
69594;SDS011;56800;52.142;5.364;2023-01-29T12:15:36;32.22;;;18.17;;
69594;SDS011;56800;52.142;5.364;2023-01-29T12:20:36;33.80;;;19.00;;
69594;SDS011;56800;52.142;5.364;2023-01-29T12:25:50;26.67;;;16.23;;
69594;SDS011;56800;52.142;5.364;2023-01-29T12:34:34;31.15;;;19.20;;
69594;SDS011;56800;52.142;5.364;2023-01-29T12:40:10;31.23;;;18.40;;
69594;SDS011;56800;52.142;5.364;2023-01-29T12:42:43;29.90;;;17.35;;
69594;SDS011;56800;52.142;5.364;2023-01-29T12:45:18;29.52;;;19.13;;
69594;SDS011;56800;52.142;5.364;2023-01-29T12:47:48;28.75;;;18.27;;
69594;SDS011;56800;52.142;5.364;2023-01-29T12:50:28;32.60;;;18.27;;
69594;SDS011;56800;52.142;5.364;2023-01-29T12:53:05;30.02;;;18.20;;
69594;SDS011;56800;52.142;5.364;2023-01-29T12:55:52;31.25;;;19.13;;
69594;SDS011;56800;52.142;5.364;2023-01-29T12:58:44;30.10;;;17.38;;
69594;SDS011;56800;52.142;5.364;2023-01-29T13:06:39;25.95;;;17.35;;
69594;SDS011;56800;52.142;5.364;2023-01-29T13:09:13;32.80;;;18.98;;
69594;SDS011;56800;52.142;5.364;2023-01-29T13:12:01;30.88;;;18.50;;
69594;SDS011;56800;52.142;5.364;2023-01-29T13:20:04;31.98;;;18.95;;
69594;SDS011;56800;52.142;5.364;2023-01-29T13:22:38;32.70;;;18.77;;
69594;SDS011;56800;52.142;5.364;2023-01-29T13:25:06;32.13;;;19.50;;
69594;SDS011;56800;52.142;5.364;2023-01-29T13:27:41;31.38;;;18.55;;
69594;SDS011;56800;52.142;5.364;2023-01-29T13:30:28;27.77;;;16.97;;
69594;SDS011;56800;52.142;5.364;2023-01-29T13:32:57;34.30;;;18.75;;
69594;SDS011;56800;52.142;5.364;2023-01-29T13:35:37;33.10;;;19.08;;
69594;SDS011;56800;52.142;5.364;2023-01-29T13:38:18;32.53;;;19.48;;
69594;SDS011;56800;52.142;5.364;2023-01-29T13:40:50;30.77;;;18.83;;
69594;SDS011;56800;52.142;5.364;2023-01-29T13:43:25;28.40;;;16.97;;
69594;SDS011;56800;52.142;5.364;2023-01-29T13:45:55;30.73;;;19.17;;
69594;SDS011;56800;52.142;5.364;2023-01-29T13:48:25;30.98;;;18.63;;
69594;SDS011;56800;52.142;5.364;2023-01-29T13:50:54;28.88;;;18.05;;
69594;SDS011;56800;52.142;5.364;2023-01-29T13:53:28;30.83;;;18.88;;
69594;SDS011;56800;52.142;5.364;2023-01-29T13:58:58;30.85;;;18.17;;
69594;SDS011;56800;52.142;5.364;2023-01-29T14:06:47;26.98;;;16.92;;
69594;SDS011;56800;52.142;5.364;2023-01-29T14:17:14;28.08;;;18.27;;
69594;SDS011;56800;52.142;5.364;2023-01-29T14:19:48;26.30;;;17.52;;
69594;SDS011;56800;52.142;5.364;2023-01-29T14:22:19;24.10;;;15.00;;
69594;SDS011;56800;52.142;5.364;2023-01-29T14:24:52;28.42;;;17.13;;
69594;SDS011;56800;52.142;5.364;2023-01-29T14:27:23;25.38;;;16.55;;
69594;SDS011;56800;52.142;5.364;2023-01-29T14:29:51;26.98;;;15.90;;
69594;SDS011;56800;52.142;5.364;2023-01-29T14:32:27;25.98;;;16.67;;
69594;SDS011;56800;52.142;5.364;2023-01-29T14:37:30;28.08;;;15.90;;
69594;SDS011;56800;52.142;5.364;2023-01-29T14:45:25;23.70;;;15.70;;
69594;SDS011;56800;52.142;5.364;2023-01-29T14:50:47;27.75;;;16.73;;
69594;SDS011;56800;52.142;5.364;2023-01-29T14:53:30;29.52;;;16.05;;
69594;SDS011;56800;52.142;5.364;2023-01-29T14:56:16;26.98;;;16.30;;
69594;SDS011;56800;52.142;5.364;2023-01-29T14:58:58;23.10;;;14.32;;
69594;SDS011;56800;52.142;5.364;2023-01-29T15:01:34;22.90;;;13.93;;
69594;SDS011;56800;52.142;5.364;2023-01-29T15:04:06;26.52;;;15.73;;
69594;SDS011;56800;52.142;5.364;2023-01-29T15:06:56;26.88;;;16.70;;
69594;SDS011;56800;52.142;5.364;2023-01-29T15:09:40;21.55;;;13.63;;
69594;SDS011;56800;52.142;5.364;2023-01-29T15:12:20;27.10;;;16.23;;
69594;SDS011;56800;52.142;5.364;2023-01-29T15:20:35;29.55;;;17.60;;
69594;SDS011;56800;52.142;5.364;2023-01-29T15:23:03;29.73;;;16.58;;
69594;SDS011;56800;52.142;5.364;2023-01-29T15:25:49;24.80;;;15.82;;
69594;SDS011;56800;52.142;5.364;2023-01-29T15:28:19;27.77;;;15.80;;
69594;SDS011;56800;52.142;5.364;2023-01-29T15:30:50;26.83;;;16.70;;
69594;SDS011;56800;52.142;5.364;2023-01-29T15:33:19;28.48;;;16.05;;
69594;SDS011;56800;52.142;5.364;2023-01-29T15:35:46;27.23;;;16.30;;
69594;SDS011;56800;52.142;5.364;2023-01-29T15:38:19;25.20;;;15.73;;
69594;SDS011;56800;52.142;5.364;2023-01-29T15:40:58;26.43;;;15.97;;
69594;SDS011;56800;52.142;5.364;2023-01-29T15:44:09;26.20;;;15.85;;
69594;SDS011;56800;52.142;5.364;2023-01-29T15:46:26;23.33;;;14.85;;
69594;SDS011;56800;52.142;5.364;2023-01-29T15:48:56;23.45;;;14.65;;
69594;SDS011;56800;52.142;5.364;2023-01-29T15:51:25;24.73;;;15.18;;
69594;SDS011;56800;52.142;5.364;2023-01-29T15:54:00;26.80;;;15.40;;
69594;SDS011;56800;52.142;5.364;2023-01-29T15:56:36;24.58;;;14.20;;
69594;SDS011;56800;52.142;5.364;2023-01-29T15:59:06;20.77;;;12.55;;
69594;SDS011;56800;52.142;5.364;2023-01-29T16:01:38;23.63;;;14.65;;
69594;SDS011;56800;52.142;5.364;2023-01-29T16:04:05;22.95;;;14.45;;
69594;SDS011;56800;52.142;5.364;2023-01-29T16:06:39;27.50;;;15.23;;
69594;SDS011;56800;52.142;5.364;2023-01-29T16:09:09;24.65;;;15.07;;
69594;SDS011;56800;52.142;5.364;2023-01-29T16:11:42;27.92;;;15.45;;
69594;SDS011;56800;52.142;5.364;2023-01-29T16:14:11;25.73;;;14.95;;
69594;SDS011;56800;52.142;5.364;2023-01-29T16:16:42;24.75;;;13.77;;
69594;SDS011;56800;52.142;5.364;2023-01-29T16:19:20;27.37;;;16.80;;
69594;SDS011;56800;52.142;5.364;2023-01-29T16:21:58;28.25;;;15.73;;
69594;SDS011;56800;52.142;5.364;2023-01-29T16:24:26;24.75;;;16.67;;
69594;SDS011;56800;52.142;5.364;2023-01-29T16:26:59;29.13;;;15.70;;
69594;SDS011;56800;52.142;5.364;2023-01-29T16:29:32;29.40;;;15.57;;
69594;SDS011;56800;52.142;5.364;2023-01-29T16:32:00;24.77;;;14.97;;
69594;SDS011;56800;52.142;5.364;2023-01-29T16:34:33;26.45;;;15.80;;
69594;SDS011;56800;52.142;5.364;2023-01-29T16:37:04;26.67;;;16.85;;
69594;SDS011;56800;52.142;5.364;2023-01-29T16:39:42;27.77;;;15.98;;
69594;SDS011;56800;52.142;5.364;2023-01-29T16:44:47;32.20;;;16.27;;
69594;SDS011;56800;52.142;5.364;2023-01-29T16:53:14;26.40;;;15.25;;
69594;SDS011;56800;52.142;5.364;2023-01-29T16:55:45;31.00;;;16.13;;
69594;SDS011;56800;52.142;5.364;2023-01-29T16:58:18;29.67;;;16.23;;
69594;SDS011;56800;52.142;5.364;2023-01-29T17:00:48;26.60;;;16.08;;
69594;SDS011;56800;52.142;5.364;2023-01-29T17:03:18;27.63;;;16.17;;
69594;SDS011;56800;52.142;5.364;2023-01-29T17:05:45;25.25;;;15.38;;
69594;SDS011;56800;52.142;5.364;2023-01-29T17:08:19;29.65;;;16.80;;
69594;SDS011;56800;52.142;5.364;2023-01-29T17:10:50;31.47;;;17.70;;
69594;SDS011;56800;52.142;5.364;2023-01-29T17:13:22;32.67;;;17.60;;
69594;SDS011;56800;52.142;5.364;2023-01-29T17:16:01;32.65;;;17.38;;
69594;SDS011;56800;52.142;5.364;2023-01-29T17:18:39;25.85;;;15.30;;
69594;SDS011;56800;52.142;5.364;2023-01-29T17:21:05;30.95;;;17.30;;
69594;SDS011;56800;52.142;5.364;2023-01-29T17:23:32;34.10;;;17.73;;
69594;SDS011;56800;52.142;5.364;2023-01-29T17:25:58;27.48;;;16.45;;